Time;durP1;ratioP1;P1;durP2;ratioP2;P2;SDS_P1;SDS_P2;PMS_P1;PMS_P2;Temp;Humidity;BMP_temperature;BMP_pressure;BME280_temperature;BME280_humidity;BME280_pressure;Samples;Min_cycle;Max_cycle;Signal;HPM_P1;HPM_P2
2021/08/10 00:01:41;;;;;;;7.63;6.83;;;14.50;99.90;;;;;;4851928;29;20581;-76
2021/08/10 00:04:08;;;;;;;4.10;3.70;;;14.40;99.90;;;;;;4847613;29;20205;-76
2021/08/10 00:06:34;;;;;;;6.73;3.80;;;14.40;99.90;;;;;;4860445;29;20240;-76
2021/08/10 00:09:03;;;;;;;4.93;3.70;;;14.40;99.90;;;;;;4852257;29;20698;-76
2021/08/10 00:11:30;;;;;;;4.23;3.80;;;14.40;99.90;;;;;;4852845;29;20205;-76
2021/08/10 00:13:57;;;;;;;4.37;3.80;;;14.40;99.90;;;;;;4863961;29;20207;-76
2021/08/10 00:16:24;;;;;;;4.67;3.87;;;14.40;99.90;;;;;;4850414;29;20287;-76
2021/08/10 00:18:51;;;;;;;4.37;3.97;;;14.40;99.90;;;;;;4851042;29;20213;-76
2021/08/10 00:21:17;;;;;;;6.37;4.10;;;14.40;99.90;;;;;;4853509;29;20700;-76
2021/08/10 00:23:44;;;;;;;4.87;4.10;;;14.40;99.90;;;;;;4851420;29;20217;-76
2021/08/10 00:26:14;;;;;;;6.50;4.20;;;14.30;99.90;;;;;;4849570;29;20285;-76
2021/08/10 00:28:41;;;;;;;3.93;3.27;;;14.30;99.90;;;;;;4855458;29;20301;-76
2021/08/10 00:31:08;;;;;;;6.93;3.70;;;14.30;99.90;;;;;;4865010;29;20257;-76
2021/08/10 00:33:34;;;;;;;4.40;3.83;;;14.30;99.90;;;;;;4886567;29;20207;-76
2021/08/10 00:36:01;;;;;;;4.10;3.47;;;14.20;99.90;;;;;;4848166;29;20226;-76
2021/08/10 00:38:28;;;;;;;6.00;4.00;;;14.20;99.90;;;;;;4854959;29;20300;-76
2021/08/10 00:40:57;;;;;;;5.00;3.50;;;14.20;99.90;;;;;;4850011;29;20224;-76
2021/08/10 00:43:34;;;;;;;6.57;3.70;;;14.20;99.90;;;;;;4854616;29;20209;-76
2021/08/10 00:46:06;;;;;;;6.20;4.27;;;14.20;99.90;;;;;;4858374;29;20217;-76
2021/08/10 00:48:33;;;;;;;4.83;3.97;;;14.20;99.90;;;;;;4851106;29;20221;-76
2021/08/10 00:51:04;;;;;;;4.20;3.80;;;14.20;99.90;;;;;;4847252;29;20364;-76
2021/08/10 00:53:32;;;;;;;4.30;3.90;;;14.20;99.90;;;;;;4855414;29;20246;-76
2021/08/10 00:55:58;;;;;;;5.90;4.30;;;14.10;99.90;;;;;;4868594;29;20638;-76
2021/08/10 00:58:26;;;;;;;6.60;4.30;;;14.20;99.90;;;;;;4852454;29;20220;-76
2021/08/10 01:00:55;;;;;;;4.30;3.67;;;14.20;99.90;;;;;;4850969;29;20244;-76
2021/08/10 01:03:22;;;;;;;5.57;3.73;;;14.10;99.90;;;;;;4850134;29;20639;-76
2021/08/10 01:05:51;;;;;;;5.97;3.70;;;14.00;99.90;;;;;;4850876;29;20262;-76
2021/08/10 01:08:34;;;;;;;4.60;3.93;;;14.00;99.90;;;;;;4852051;29;20210;-76
2021/08/10 01:11:09;;;;;;;6.03;5.40;;;14.00;99.90;;;;;;4851357;29;20232;-76
2021/08/10 01:13:39;;;;;;;5.70;5.20;;;13.90;99.90;;;;;;4881021;29;20204;-76
2021/08/10 01:16:17;;;;;;;7.83;5.60;;;13.90;99.90;;;;;;4851984;29;20707;-76
2021/08/10 01:18:56;;;;;;;5.43;5.03;;;13.90;99.90;;;;;;4856152;29;20228;-76
2021/08/10 01:21:27;;;;;;;6.10;5.60;;;13.90;99.90;;;;;;4855348;29;20316;-76
2021/08/10 01:24:05;;;;;;;6.20;5.60;;;13.80;99.90;;;;;;4858274;29;20247;-76
2021/08/10 01:26:51;;;;;;;6.30;5.70;;;13.80;99.90;;;;;;4881583;29;20723;-76
2021/08/10 01:29:21;;;;;;;7.97;5.80;;;13.80;99.90;;;;;;4850360;29;20312;-76
2021/08/10 01:31:52;;;;;;;5.87;4.20;;;13.70;99.90;;;;;;4850733;29;20591;-76
2021/08/10 01:34:26;;;;;;;4.27;3.60;;;13.70;99.90;;;;;;4857621;29;20249;-76
2021/08/10 01:37:03;;;;;;;4.00;3.60;;;13.70;99.90;;;;;;4857838;29;20213;-76
2021/08/10 01:39:33;;;;;;;5.73;3.80;;;13.70;99.90;;;;;;4850405;29;20254;-76
2021/08/10 01:42:01;;;;;;;6.47;3.83;;;13.70;99.90;;;;;;4863146;29;20208;-76
2021/08/10 01:44:31;;;;;;;4.50;3.70;;;13.70;99.90;;;;;;4850455;29;20212;-76
2021/08/10 01:47:07;;;;;;;5.13;4.33;;;13.70;99.90;;;;;;4853419;29;20293;-76
2021/08/10 01:49:38;;;;;;;4.50;4.00;;;13.70;99.90;;;;;;4881372;23;20885;-78
2021/08/10 01:52:08;;;;;;;6.20;3.97;;;13.60;99.90;;;;;;4895289;29;20204;-78
2021/08/10 01:54:37;;;;;;;4.33;3.90;;;13.60;99.90;;;;;;4895136;29;20227;-79
2021/08/10 01:57:05;;;;;;;4.40;4.00;;;13.60;99.90;;;;;;4895295;29;20241;-77
2021/08/10 01:59:38;;;;;;;4.67;3.97;;;13.50;99.90;;;;;;4894877;29;20521;-78
2021/08/10 02:02:07;;;;;;;6.00;4.17;;;13.50;99.90;;;;;;4889399;29;20215;-78
2021/08/10 02:04:36;;;;;;;5.23;4.30;;;13.50;99.90;;;;;;4884223;29;20256;-77
2021/08/10 02:07:04;;;;;;;5.33;4.83;;;13.50;99.90;;;;;;4888008;29;20204;-78
2021/08/10 02:09:33;;;;;;;5.20;4.17;;;13.40;99.90;;;;;;4895027;29;20577;-77
2021/08/10 02:12:02;;;;;;;7.60;6.90;;;13.50;99.90;;;;;;4883600;29;20215;-78
2021/08/10 02:14:35;;;;;;;7.17;6.57;;;13.40;99.90;;;;;;4894161;29;20258;-77
2021/08/10 02:17:15;;;;;;;5.33;4.90;;;13.40;99.90;;;;;;4896345;29;20220;-78
2021/08/10 02:19:48;;;;;;;6.23;5.60;;;13.40;99.90;;;;;;4890858;29;20248;-78
2021/08/10 02:22:18;;;;;;;9.63;8.73;;;13.40;99.90;;;;;;4898778;29;20199;-78
2021/08/10 02:24:55;;;;;;;7.40;5.77;;;13.40;99.90;;;;;;4896950;29;20211;-79
2021/08/10 02:27:28;;;;;;;6.97;4.60;;;13.40;99.90;;;;;;4897090;29;20211;-77
2021/08/10 02:29:55;;;;;;;5.67;4.60;;;13.40;99.90;;;;;;4894717;29;20586;-77
2021/08/10 02:32:30;;;;;;;9.77;9.07;;;13.40;99.90;;;;;;4898810;29;20207;-76
2021/08/10 02:35:00;;;;;;;10.67;9.67;;;13.30;99.90;;;;;;4887150;29;20251;-78
2021/08/10 02:37:28;;;;;;;10.10;9.20;;;13.30;99.90;;;;;;4891206;29;20291;-78
2021/08/10 02:39:57;;;;;;;9.23;8.53;;;13.30;99.90;;;;;;4895620;29;20218;-78
2021/08/10 02:42:29;;;;;;;10.60;9.53;;;13.30;99.90;;;;;;4898552;29;20237;-76
2021/08/10 02:45:03;;;;;;;9.97;9.20;;;13.30;99.90;;;;;;4891682;29;20205;-78
2021/08/10 02:47:34;;;;;;;10.27;9.47;;;13.20;99.90;;;;;;4907541;29;20213;-78
2021/08/10 02:50:18;;;;;;;9.80;8.83;;;13.20;99.90;;;;;;4890987;29;20257;-78
2021/08/10 03:00:59;;;;;;;10.17;9.30;;;13.20;99.90;;;;;;4895240;29;20226;-79
2021/08/10 03:04:29;;;;;;;9.87;9.17;;;13.20;99.90;;;;;;4884524;29;20202;-79
2021/08/10 03:07:23;;;;;;;9.53;8.83;;;13.20;99.90;;;;;;4892507;29;20249;-79
2021/08/10 03:09:53;;;;;;;9.63;8.83;;;13.20;99.90;;;;;;4898142;29;20281;-76
2021/08/10 03:12:23;;;;;;;10.03;9.33;;;13.20;99.90;;;;;;4886892;29;20211;-76
2021/08/10 03:14:52;;;;;;;9.87;9.17;;;13.20;99.90;;;;;;4894260;29;20225;-76
2021/08/10 03:17:20;;;;;;;9.83;9.13;;;13.20;99.90;;;;;;4892701;29;20205;-76
2021/08/10 03:19:51;;;;;;;10.33;9.40;;;13.20;99.90;;;;;;4889161;29;20218;-75
2021/08/10 03:22:19;;;;;;;11.00;9.90;;;13.20;99.90;;;;;;4896521;29;20338;-76
2021/08/10 03:24:48;;;;;;;10.67;9.87;;;13.20;99.90;;;;;;4894822;29;20232;-75
2021/08/10 03:27:15;;;;;;;10.97;10.07;;;13.20;99.90;;;;;;4896928;29;20266;-75
2021/08/10 03:29:43;;;;;;;11.77;10.87;;;13.20;99.90;;;;;;4893460;29;20226;-75
2021/08/10 03:32:14;;;;;;;10.37;9.57;;;13.20;99.90;;;;;;4893450;29;20230;-76
2021/08/10 03:34:41;;;;;;;10.57;9.77;;;13.20;99.90;;;;;;4895299;29;20236;-77
2021/08/10 03:37:11;;;;;;;10.90;9.90;;;13.20;99.90;;;;;;4894114;29;20196;-76
2021/08/10 03:39:40;;;;;;;11.00;10.20;;;13.10;99.90;;;;;;4896210;29;20308;-76
2021/08/10 03:42:08;;;;;;;9.77;9.07;;;13.10;99.90;;;;;;4891825;29;20195;-75
2021/08/10 03:44:41;;;;;;;9.93;9.23;;;13.20;99.90;;;;;;4894416;29;20804;-76
2021/08/10 03:47:09;;;;;;;10.57;9.77;;;13.10;99.90;;;;;;4896068;29;20210;-76
2021/08/10 03:49:37;;;;;;;10.37;9.47;;;13.00;99.90;;;;;;4896634;29;20235;-75
2021/08/10 03:52:08;;;;;;;9.70;8.93;;;13.00;99.90;;;;;;4896630;29;20228;-75
2021/08/10 03:54:38;;;;;;;10.20;9.30;;;13.10;99.90;;;;;;4893352;29;20605;-76
2021/08/10 03:57:07;;;;;;;12.10;11.10;;;13.00;99.90;;;;;;4893656;29;20675;-76
2021/08/10 03:59:35;;;;;;;10.80;10.00;;;13.00;99.90;;;;;;4896672;29;20225;-76
2021/08/10 04:02:05;;;;;;;11.80;10.90;;;13.00;99.90;;;;;;4894631;29;20231;-76
2021/08/10 04:04:34;;;;;;;12.57;11.67;;;12.90;99.90;;;;;;4895904;29;20591;-76
2021/08/10 04:07:05;;;;;;;12.40;11.30;;;13.00;99.90;;;;;;4896505;29;20254;-76
2021/08/10 04:09:34;;;;;;;11.37;10.57;;;13.00;99.90;;;;;;4895712;29;20233;-76
2021/08/10 04:12:06;;;;;;;11.33;10.53;;;13.00;99.90;;;;;;4890776;29;20220;-76
2021/08/10 04:14:37;;;;;;;12.20;11.30;;;13.00;99.90;;;;;;4911004;29;20205;-76
2021/08/10 04:17:07;;;;;;;12.23;11.33;;;13.00;99.90;;;;;;4903999;29;20295;-76
2021/08/10 04:19:45;;;;;;;11.80;11.00;;;13.00;99.90;;;;;;4892175;29;20217;-76
2021/08/10 04:22:14;;;;;;;11.70;10.90;;;13.00;99.90;;;;;;4890963;29;20218;-76
2021/08/10 04:24:44;;;;;;;11.97;11.07;;;13.00;99.90;;;;;;4895843;29;20297;-76
2021/08/10 04:27:13;;;;;;;12.73;11.83;;;13.10;99.90;;;;;;4894511;29;20225;-76
2021/08/10 04:29:41;;;;;;;12.80;11.90;;;13.10;99.90;;;;;;4889380;29;20217;-76
2021/08/10 04:32:09;;;;;;;8.33;7.63;;;13.20;99.90;;;;;;4892828;29;20626;-77
2021/08/10 04:34:38;;;;;;;5.63;4.90;;;13.30;99.90;;;;;;4896152;29;20206;-76
2021/08/10 04:37:06;;;;;;;7.47;5.13;;;13.30;99.90;;;;;;4884074;29;20203;-77
2021/08/10 04:39:35;;;;;;;5.67;4.60;;;13.40;99.90;;;;;;4896133;29;20222;-76
2021/08/10 04:42:06;;;;;;;5.13;4.70;;;13.50;99.90;;;;;;4896362;29;20223;-76
2021/08/10 04:44:35;;;;;;;7.37;6.77;;;13.50;99.90;;;;;;4893417;29;20212;-76
2021/08/10 04:47:02;;;;;;;6.47;5.97;;;13.60;99.90;;;;;;4889939;29;20199;-76
2021/08/10 04:49:29;;;;;;;9.70;9.00;;;13.70;99.90;;;;;;4896971;29;20237;-78
2021/08/10 04:51:56;;;;;;;10.20;9.50;;;13.70;99.90;;;;;;4895991;29;20314;-78
2021/08/10 04:54:23;;;;;;;9.30;8.50;;;13.80;99.90;;;;;;4888264;29;20194;-78
2021/08/10 04:56:50;;;;;;;7.33;6.77;;;13.90;99.90;;;;;;4897085;29;20198;-78
2021/08/10 04:59:18;;;;;;;9.07;8.33;;;13.90;99.90;;;;;;4894394;29;20278;-77
2021/08/10 05:01:47;;;;;;;7.03;6.43;;;13.90;99.90;;;;;;4886752;29;20195;-78
2021/08/10 05:04:14;;;;;;;8.40;7.70;;;14.00;99.90;;;;;;4891903;29;20750;-78
2021/08/10 05:06:42;;;;;;;6.40;5.53;;;14.00;99.90;;;;;;4895353;29;20203;-78
2021/08/10 05:09:09;;;;;;;6.13;5.63;;;14.10;99.90;;;;;;4890678;29;20662;-78
2021/08/10 05:11:37;;;;;;;7.97;7.27;;;14.30;99.90;;;;;;4893360;29;20244;-78
2021/08/10 05:14:04;;;;;;;7.73;7.03;;;14.30;99.90;;;;;;4895575;29;20586;-79
2021/08/10 05:16:31;;;;;;;8.43;7.83;;;14.40;99.90;;;;;;4895548;29;20248;-78
2021/08/10 05:18:59;;;;;;;7.47;6.87;;;14.40;99.90;;;;;;4895694;29;20224;-78
2021/08/10 05:21:32;;;;;;;8.40;7.70;;;14.50;99.90;;;;;;4893118;29;20192;-78
2021/08/10 05:23:59;;;;;;;4.97;4.57;;;14.50;99.90;;;;;;4903932;29;20209;-78
2021/08/10 05:26:27;;;;;;;5.47;5.03;;;14.50;99.90;;;;;;4895965;29;20196;-78
2021/08/10 05:28:57;;;;;;;7.90;7.20;;;14.60;99.90;;;;;;4895631;29;20620;-78
2021/08/10 05:31:23;;;;;;;5.30;4.80;;;14.60;99.90;;;;;;4896558;29;20224;-78
2021/08/10 05:33:50;;;;;;;4.77;4.27;;;14.80;99.90;;;;;;4896857;29;20236;-79
2021/08/10 05:36:20;;;;;;;5.40;4.90;;;14.90;99.90;;;;;;4895727;29;20212;-79
2021/08/10 05:38:49;;;;;;;6.30;5.80;;;14.90;99.90;;;;;;4882125;29;20261;-80
2021/08/10 05:41:17;;;;;;;5.60;5.20;;;15.00;99.90;;;;;;4883027;29;20225;-80
2021/08/10 05:43:45;;;;;;;6.40;5.80;;;15.10;99.90;;;;;;4879747;29;20210;-80
2021/08/10 05:46:12;;;;;;;6.10;5.60;;;15.20;99.90;;;;;;4896108;29;20283;-80
2021/08/10 05:48:39;;;;;;;7.40;6.70;;;15.30;99.90;;;;;;4889121;29;20209;-80
2021/08/10 05:51:08;;;;;;;8.23;7.53;;;15.30;99.90;;;;;;4894760;29;20228;-80
2021/08/10 05:53:38;;;;;;;9.00;8.40;;;15.40;99.90;;;;;;4889246;29;20205;-80
2021/08/10 05:56:08;;;;;;;8.63;8.03;;;15.40;99.90;;;;;;4894040;29;20652;-79
2021/08/10 05:58:36;;;;;;;10.50;9.70;;;15.50;99.90;;;;;;4899200;29;20603;-80
2021/08/10 06:01:05;;;;;;;10.13;9.43;;;15.50;99.90;;;;;;4887364;29;20695;-80
2021/08/10 06:03:32;;;;;;;5.70;5.20;;;15.60;99.90;;;;;;4898985;29;20712;-82
2021/08/10 06:05:59;;;;;;;8.43;7.73;;;15.60;99.90;;;;;;4895662;29;20206;-80
2021/08/10 06:08:34;;;;;;;9.33;8.63;;;15.60;99.90;;;;;;4887028;29;20208;-80
2021/08/10 06:11:02;;;;;;;10.40;9.80;;;15.80;99.90;;;;;;4895403;29;20228;-80
2021/08/10 06:13:30;;;;;;;10.30;9.47;;;15.90;99.90;;;;;;4887605;29;20212;-80
2021/08/10 06:15:56;;;;;;;11.20;10.30;;;16.00;99.90;;;;;;4897499;29;20570;-80
2021/08/10 06:18:23;;;;;;;9.40;8.70;;;16.10;99.90;;;;;;4898633;29;20266;-80
2021/08/10 06:20:52;;;;;;;10.50;9.80;;;16.20;99.90;;;;;;4896567;29;20230;-80
2021/08/10 06:23:22;;;;;;;7.37;6.80;;;16.40;99.90;;;;;;4898740;29;20205;-80
2021/08/10 06:25:49;;;;;;;8.43;7.83;;;16.60;99.90;;;;;;4897849;29;20290;-80
2021/08/10 06:28:20;;;;;;;8.63;8.03;;;16.80;99.90;;;;;;4898194;29;20211;-80
2021/08/10 06:30:50;;;;;;;9.20;8.60;;;16.90;99.90;;;;;;4898741;29;20261;-81
2021/08/10 06:33:16;;;;;;;9.83;9.13;;;17.00;99.90;;;;;;4895604;29;20551;-81
2021/08/10 06:35:45;;;;;;;9.27;8.67;;;17.20;99.90;;;;;;4896587;29;20730;-81
2021/08/10 06:38:13;;;;;;;8.57;7.97;;;17.30;99.90;;;;;;4891147;29;20239;-80
2021/08/10 06:40:42;;;;;;;12.27;11.27;;;17.50;99.90;;;;;;4896532;29;20223;-81
2021/08/10 06:43:09;;;;;;;11.70;10.90;;;17.70;99.90;;;;;;4903000;29;20227;-80
2021/08/10 06:45:39;;;;;;;11.50;10.60;;;17.80;99.90;;;;;;4890490;29;20204;-80
2021/08/10 06:48:06;;;;;;;11.67;10.60;;;17.80;99.90;;;;;;4897179;29;20748;-80
2021/08/10 06:50:37;;;;;;;11.70;10.80;;;17.90;99.90;;;;;;4897458;29;20228;-79
2021/08/10 06:53:04;;;;;;;11.67;10.80;;;18.00;99.90;;;;;;4898109;29;20226;-80
2021/08/10 06:55:41;;;;;;;8.93;8.23;;;18.10;99.90;;;;;;4883034;29;20192;-80
2021/08/10 06:58:08;;;;;;;11.07;10.27;;;18.20;99.90;;;;;;4898146;29;20204;-81
2021/08/10 07:00:36;;;;;;;10.23;9.53;;;18.30;99.90;;;;;;4886862;29;20600;-81
2021/08/10 07:03:08;;;;;;;10.20;9.50;;;18.50;99.90;;;;;;4891821;29;20208;-80
2021/08/10 07:05:35;;;;;;;10.33;9.63;;;18.50;99.90;;;;;;4897889;29;20214;-80
2021/08/10 07:08:04;;;;;;;9.00;8.30;;;18.80;99.90;;;;;;4890270;29;20205;-80
2021/08/10 07:10:34;;;;;;;9.37;8.77;;;19.00;99.90;;;;;;4898381;29;20594;-80
2021/08/10 07:13:02;;;;;;;8.97;8.27;;;19.20;99.90;;;;;;4894517;29;20234;-80
2021/08/10 07:15:30;;;;;;;6.50;5.90;;;19.30;99.90;;;;;;4897615;29;20198;-81
2021/08/10 07:17:57;;;;;;;8.80;8.20;;;19.40;99.90;;;;;;4895455;29;20224;-80
2021/08/10 07:20:27;;;;;;;7.77;7.07;;;19.50;99.90;;;;;;4894644;29;20224;-80
2021/08/10 07:22:54;;;;;;;7.70;7.10;;;19.60;99.90;;;;;;4893518;29;20555;-80
2021/08/10 07:25:21;;;;;;;10.50;9.70;;;19.80;99.90;;;;;;4888716;29;20293;-81
2021/08/10 07:27:49;;;;;;;10.60;9.80;;;19.80;99.90;;;;;;4893629;29;20615;-81
2021/08/10 07:30:16;;;;;;;9.33;8.50;;;19.90;99.90;;;;;;4894036;29;20656;-80
2021/08/10 07:32:43;;;;;;;8.93;8.13;;;20.00;99.90;;;;;;4896299;29;20249;-81
2021/08/10 07:35:11;;;;;;;8.70;8.00;;;20.00;99.90;;;;;;4896114;29;20209;-81
2021/08/10 07:37:44;;;;;;;6.17;5.57;;;20.10;99.90;;;;;;4894557;29;20234;-80
2021/08/10 07:40:14;;;;;;;4.43;4.03;;;20.20;99.90;;;;;;4891622;29;20290;-81
2021/08/10 07:42:42;;;;;;;8.30;7.70;;;20.30;99.90;;;;;;4889544;29;20258;-81
2021/08/10 07:45:10;;;;;;;7.03;6.43;;;20.40;99.90;;;;;;4896553;29;20199;-81
2021/08/10 07:47:38;;;;;;;10.07;9.37;;;20.60;99.90;;;;;;4897712;29;20201;-80
2021/08/10 07:50:05;;;;;;;8.20;7.60;;;20.80;99.90;;;;;;4909138;23;20272;-77
2021/08/10 07:52:32;;;;;;;9.87;9.17;;;21.10;99.90;;;;;;4881079;29;20221;-77
2021/08/10 07:55:00;;;;;;;7.90;7.20;;;21.60;99.90;;;;;;4879521;29;20632;-77
2021/08/10 07:57:27;;;;;;;9.73;8.70;;;21.90;99.90;;;;;;4879511;29;20243;-77
2021/08/10 07:59:54;;;;;;;9.80;8.80;;;22.00;99.90;;;;;;4882654;29;20281;-76
2021/08/10 08:02:25;;;;;;;10.27;9.57;;;22.00;99.90;;;;;;4881778;29;20269;-77
2021/08/10 08:04:52;;;;;;;9.83;8.93;;;22.30;99.90;;;;;;4882385;29;20638;-77
2021/08/10 08:07:19;;;;;;;9.73;8.93;;;22.50;99.90;;;;;;4883349;29;20205;-76
2021/08/10 08:09:46;;;;;;;10.80;10.00;;;22.80;99.90;;;;;;4883328;29;20201;-77
2021/08/10 08:12:14;;;;;;;11.17;10.17;;;23.20;99.90;;;;;;4884038;29;20224;-77
2021/08/10 08:14:43;;;;;;;9.97;9.27;;;23.20;99.90;;;;;;4886575;29;20193;-76
2021/08/10 08:17:11;;;;;;;10.27;9.57;;;23.30;99.90;;;;;;4885263;29;20468;-77
2021/08/10 08:19:39;;;;;;;9.80;9.10;;;23.50;99.90;;;;;;4884813;29;20583;-77
2021/08/10 08:22:09;;;;;;;9.40;8.60;;;23.50;99.90;;;;;;4885270;29;20201;-77
2021/08/10 08:24:35;;;;;;;10.47;9.57;;;23.60;99.90;;;;;;4885424;29;20209;-77
2021/08/10 08:27:04;;;;;;;9.80;9.00;;;23.90;99.90;;;;;;4885769;29;20576;-77
2021/08/10 08:29:33;;;;;;;9.63;9.00;;;24.30;99.90;;;;;;4885917;29;20264;-78
2021/08/10 08:32:00;;;;;;;10.27;9.60;;;24.40;99.90;;;;;;4883071;29;20225;-77
2021/08/10 08:34:28;;;;;;;9.10;8.50;;;24.50;99.90;;;;;;4885696;29;20264;-77
2021/08/10 08:36:56;;;;;;;9.07;8.47;;;24.50;99.90;;;;;;4885850;29;20197;-77
2021/08/10 08:39:22;;;;;;;9.53;8.83;;;24.50;99.90;;;;;;4884616;29;20201;-77
2021/08/10 08:41:51;;;;;;;4.20;3.80;;;24.60;99.90;;;;;;4885156;29;20715;-78
2021/08/10 08:44:19;;;;;;;5.40;4.90;;;24.60;99.90;;;;;;4884557;29;20247;-77
2021/08/10 08:46:48;;;;;;;3.33;3.00;;;24.80;99.90;;;;;;4884866;29;20328;-77
2021/08/10 08:49:16;;;;;;;7.60;7.10;;;24.90;99.90;;;;;;4883534;29;20709;-77
2021/08/10 08:51:46;;;;;;;7.00;6.50;;;25.10;99.90;;;;;;4884431;29;20229;-77
2021/08/10 08:54:13;;;;;;;3.20;2.90;;;25.50;99.90;;;;;;4886162;29;20209;-76
2021/08/10 08:56:42;;;;;;;3.43;3.07;;;25.90;99.90;;;;;;4884534;29;20201;-77
2021/08/10 08:59:10;;;;;;;7.20;6.70;;;25.80;99.90;;;;;;4880700;29;20632;-77
2021/08/10 09:01:40;;;;;;;7.17;6.63;;;26.00;99.90;;;;;;4876833;29;20570;-77
2021/08/10 09:04:11;;;;;;;8.20;7.60;;;26.30;99.90;;;;;;4876952;29;20671;-76
2021/08/10 09:06:44;;;;;;;9.03;8.33;;;26.40;99.90;;;;;;4877143;29;20684;-77
2021/08/10 09:09:23;;;;;;;11.00;10.30;;;26.60;99.90;;;;;;4876734;29;20586;-76
2021/08/10 09:11:54;;;;;;;8.73;8.03;;;26.90;99.90;;;;;;4876909;29;20225;-77
2021/08/10 09:14:24;;;;;;;9.47;8.57;;;26.90;99.90;;;;;;4870523;29;20579;-77
2021/08/10 09:17:06;;;;;;;9.00;8.40;;;27.10;99.90;;;;;;4876892;29;20836;-77
2021/08/10 09:19:44;;;;;;;9.13;8.53;;;27.10;99.90;;;;;;4876782;29;20213;-77
2021/08/10 09:22:23;;;;;;;9.67;8.87;;;27.20;99.90;;;;;;4876655;29;20245;-77
2021/08/10 09:24:55;;;;;;;9.00;8.40;;;27.30;99.90;;;;;;4876473;29;20249;-77
2021/08/10 09:27:24;;;;;;;9.40;8.50;;;27.40;99.90;;;;;;4876573;29;20205;-77
2021/08/10 09:29:52;;;;;;;9.60;8.90;;;27.60;99.90;;;;;;4877576;29;20205;-76
2021/08/10 09:32:19;;;;;;;9.60;8.90;;;27.60;99.90;;;;;;4878248;29;20245;-77
2021/08/10 09:34:49;;;;;;;9.17;8.50;;;27.50;99.90;;;;;;4877157;29;20288;-76
2021/08/10 09:37:16;;;;;;;9.07;8.47;;;27.30;99.90;;;;;;4871155;29;20210;-76
2021/08/10 09:39:44;;;;;;;8.90;8.30;;;27.20;99.90;;;;;;4876708;29;20201;-76
2021/08/10 09:42:13;;;;;;;8.83;8.23;;;27.40;99.90;;;;;;4876510;29;20196;-77
2021/08/10 09:45:01;;;;;;;9.20;8.60;;;27.50;99.90;;;;;;4877355;29;20217;-78
2021/08/10 09:47:33;;;;;;;9.63;8.80;;;27.40;99.90;;;;;;4876221;29;20209;-77
2021/08/10 09:50:01;;;;;;;9.10;8.50;;;27.60;99.90;;;;;;4870449;29;20228;-77
2021/08/10 09:52:32;;;;;;;8.50;7.80;;;27.90;99.90;;;;;;4873000;29;20307;-76
2021/08/10 09:55:10;;;;;;;9.83;9.13;;;28.10;99.90;;;;;;4873929;29;20209;-76
2021/08/10 09:57:40;;;;;;;9.60;9.00;;;28.30;99.90;;;;;;4873812;29;20321;-77
2021/08/10 10:00:07;;;;;;;10.27;9.50;;;28.60;99.90;;;;;;4876493;29;20235;-77
2021/08/10 10:02:39;;;;;;;9.90;9.20;;;28.40;99.90;;;;;;4877727;29;20197;-76
2021/08/10 10:05:09;;;;;;;9.13;8.63;;;28.30;99.90;;;;;;4872106;29;20882;-77
2021/08/10 10:07:37;;;;;;;9.30;8.70;;;28.10;99.90;;;;;;4876067;29;20237;-77
2021/08/10 10:10:08;;;;;;;9.97;9.20;;;28.10;99.90;;;;;;4876283;29;20339;-77
2021/08/10 10:12:46;;;;;;;9.23;8.60;;;28.00;99.90;;;;;;4876353;29;20217;-77
2021/08/10 10:15:14;;;;;;;9.73;9.03;;;28.20;99.90;;;;;;4876366;29;20205;-77
2021/08/10 10:17:41;;;;;;;9.53;8.83;;;28.30;99.90;;;;;;4877130;29;20297;-76
2021/08/10 10:20:11;;;;;;;9.80;8.67;;;28.50;99.90;;;;;;4876101;29;20233;-77
2021/08/10 10:22:38;;;;;;;9.40;8.70;;;28.40;99.90;;;;;;4877364;29;20270;-77
2021/08/10 10:25:06;;;;;;;9.40;8.77;;;28.30;99.90;;;;;;4876220;29;20288;-77
2021/08/10 10:27:35;;;;;;;8.53;8.00;;;28.30;99.90;;;;;;4877133;29;20205;-77
2021/08/10 10:30:04;;;;;;;8.60;8.00;;;28.30;99.90;;;;;;4877330;29;20600;-77
2021/08/10 10:32:31;;;;;;;8.80;8.13;;;28.60;99.90;;;;;;4877203;29;20252;-77
2021/08/10 10:34:58;;;;;;;8.80;8.23;;;28.60;99.90;;;;;;4871373;29;20229;-77
2021/08/10 10:37:28;;;;;;;8.03;7.53;;;28.70;99.90;;;;;;4880527;29;20216;-77
2021/08/10 10:39:59;;;;;;;8.73;8.10;;;28.70;99.90;;;;;;4879497;29;20399;-77
2021/08/10 10:42:26;;;;;;;8.60;8.00;;;28.80;99.90;;;;;;4880734;29;20249;-77
2021/08/10 10:44:53;;;;;;;8.53;7.83;;;28.70;99.90;;;;;;4880457;29;20280;-76
2021/08/10 10:47:34;;;;;;;7.93;7.43;;;28.70;99.90;;;;;;4880518;29;20198;-77
2021/08/10 10:50:16;;;;;;;8.77;8.17;;;28.80;99.90;;;;;;4873287;29;20273;-77
2021/08/10 10:53:01;;;;;;;9.40;8.80;;;28.50;99.90;;;;;;4880339;29;20221;-77
2021/08/10 10:55:43;;;;;;;9.00;8.40;;;28.60;99.90;;;;;;4875649;29;20197;-77
2021/08/10 10:58:34;;;;;;;9.10;8.40;;;28.60;99.90;;;;;;4877114;29;20214;-76
2021/08/10 11:01:15;;;;;;;9.07;8.47;;;28.50;99.90;;;;;;4873778;29;20704;-76
2021/08/10 11:04:02;;;;;;;8.97;8.40;;;28.40;99.90;;;;;;4878355;29;20663;-76
2021/08/10 11:06:30;;;;;;;9.30;8.70;;;28.50;99.90;;;;;;4880134;29;20621;-76
2021/08/10 11:08:58;;;;;;;9.37;8.73;;;28.70;99.90;;;;;;4879897;29;20228;-77
2021/08/10 11:11:44;;;;;;;9.57;8.97;;;28.70;99.90;;;;;;4880341;29;20758;-77
2021/08/10 11:14:44;;;;;;;9.23;8.53;;;28.60;99.90;;;;;;4874007;29;20220;-77
2021/08/10 11:17:12;;;;;;;8.90;8.30;;;28.50;99.90;;;;;;4872871;29;20671;-77
2021/08/10 11:19:40;;;;;;;9.53;8.87;;;28.40;99.90;;;;;;4879985;29;20686;-76
2021/08/10 11:22:26;;;;;;;9.30;8.70;;;28.40;99.90;;;;;;4880095;29;20253;-77
2021/08/10 11:24:57;;;;;;;9.97;9.20;;;28.20;99.90;;;;;;4878694;29;20214;-76
2021/08/10 11:27:35;;;;;;;9.63;8.83;;;28.00;99.90;;;;;;4878581;29;20587;-77
2021/08/10 11:30:05;;;;;;;9.50;8.70;;;27.90;99.90;;;;;;4884547;29;20226;-77
2021/08/10 11:32:45;;;;;;;9.73;9.03;;;27.80;99.90;;;;;;4878606;29;20204;-76
2021/08/10 11:35:29;;;;;;;9.90;9.10;;;27.80;99.90;;;;;;4872991;29;20265;-77
2021/08/10 11:38:16;;;;;;;9.60;9.00;;;27.80;99.90;;;;;;4878403;29;20197;-76
2021/08/10 11:40:56;;;;;;;9.40;8.80;;;27.90;99.90;;;;;;4879636;29;20232;-77
2021/08/10 11:43:36;;;;;;;9.07;8.47;;;28.10;99.90;;;;;;4879629;29;20189;-77
2021/08/10 11:46:04;;;;;;;9.43;8.63;;;28.10;99.90;;;;;;4884325;29;20582;-77
2021/08/10 11:48:43;;;;;;;9.77;9.00;;;28.00;99.90;;;;;;4879559;29;20600;-76
2021/08/10 11:51:21;;;;;;;8.90;8.30;;;27.90;99.90;;;;;;4873551;29;20225;-77
2021/08/10 11:53:48;;;;;;;8.83;8.23;;;27.60;99.90;;;;;;4878036;29;20698;-77
2021/08/10 11:56:28;;;;;;;9.03;8.37;;;27.60;99.90;;;;;;4879525;29;20236;-76
2021/08/10 11:58:55;;;;;;;8.07;7.50;;;27.80;99.90;;;;;;4879212;29;20231;-76
2021/08/10 12:01:23;;;;;;;8.40;7.80;;;27.60;99.90;;;;;;4878035;29;20647;-77
2021/08/10 12:03:50;;;;;;;8.60;8.00;;;27.60;99.90;;;;;;4879389;29;20198;-76
2021/08/10 12:06:17;;;;;;;8.23;7.57;;;27.60;99.90;;;;;;4877922;29;20300;-76
2021/08/10 12:08:44;;;;;;;8.40;7.80;;;27.60;99.90;;;;;;4877760;29;20261;-77
2021/08/10 12:11:11;;;;;;;4.23;3.20;;;27.70;99.90;;;;;;4878022;29;20264;-77
2021/08/10 12:13:39;;;;;;;5.07;4.67;;;27.50;99.90;;;;;;4879479;29;20214;-77
2021/08/10 12:16:10;;;;;;;4.30;3.90;;;27.30;99.90;;;;;;4879089;29;20249;-77
2021/08/10 12:18:48;;;;;;;9.00;8.40;;;27.30;99.90;;;;;;4878316;29;20687;-77
2021/08/10 12:21:16;;;;;;;8.80;8.20;;;27.40;99.90;;;;;;4879175;29;20706;-77
2021/08/10 12:23:44;;;;;;;9.23;8.40;;;27.50;99.90;;;;;;4878933;29;20667;-77
2021/08/10 12:26:13;;;;;;;8.47;7.87;;;27.60;99.90;;;;;;4877498;29;20197;-77
2021/08/10 12:28:56;;;;;;;8.23;7.47;;;27.40;99.90;;;;;;4877321;29;20260;-76
2021/08/10 12:31:23;;;;;;;8.37;7.87;;;27.20;99.90;;;;;;4879013;29;20316;-76
2021/08/10 12:33:51;;;;;;;8.10;7.50;;;27.10;99.90;;;;;;4877614;29;20213;-77
2021/08/10 12:36:19;;;;;;;8.70;8.00;;;26.90;99.90;;;;;;4871777;29;20684;-77
2021/08/10 12:38:46;;;;;;;8.30;7.70;;;26.80;99.90;;;;;;4877211;29;20252;-77
2021/08/10 12:41:14;;;;;;;7.97;7.30;;;26.80;99.90;;;;;;4878850;29;20229;-76
2021/08/10 12:43:41;;;;;;;7.93;7.43;;;26.80;99.90;;;;;;4877319;29;20232;-77
2021/08/10 12:46:30;;;;;;;7.83;7.33;;;27.00;99.90;;;;;;4879030;29;20213;-77
2021/08/10 12:49:12;;;;;;;7.83;7.23;;;27.10;99.90;;;;;;4870623;29;20204;-76
2021/08/10 12:51:56;;;;;;;8.23;7.63;;;27.00;99.90;;;;;;4876827;29;20741;-77
2021/08/10 12:54:25;;;;;;;7.97;7.47;;;27.00;99.90;;;;;;4877219;29;20244;-77
2021/08/10 12:56:52;;;;;;;7.70;7.20;;;27.10;99.90;;;;;;4876858;29;20205;-77
2021/08/10 12:59:19;;;;;;;7.93;7.33;;;27.10;99.90;;;;;;4877377;29;20260;-77
2021/08/10 13:01:48;;;;;;;7.97;7.37;;;27.20;99.90;;;;;;4877463;29;20293;-77
2021/08/10 13:04:15;;;;;;;8.07;7.37;;;27.30;99.90;;;;;;4879254;29;20258;-77
2021/08/10 13:06:42;;;;;;;8.77;8.07;;;27.50;99.90;;;;;;4878551;29;20212;-77
2021/08/10 13:09:09;;;;;;;4.60;4.20;;;27.60;99.90;;;;;;4878086;29;20284;-77